Eko 2 — SY9957 — position and weather

sailwx.info

Track history (hours):
 
Tides and Currents Weather Stations Pressure Air Temp Water Temp Dewpoint Dewpoint Depression Visibility Wind Speed Wind Dir Waves Ship Positions

Eko 2

Last reported at 2016-May-24 22:33 UTC. Time now 2016-May-25 20:52 UTC.
Position N 37°03' E 025°18'.

Length 89 m; draft 4.3 m.

Type: Ship (hazmat cat A). MMSI: 240827000.

Date/timePositionNaut miles runAvg speedWind from/ knotsBaromVisibWave heightAir tempDewpointWater temp
2016-May-24 22:33N 37°03' E 025°18'8 7.7
2016-May-24 21:33N 37°10' E 025°17'22 0.7
2016-May-23 13:10N 37°28' E 025°01'711.3
2016-May-23 12:34N 37°31' E 025°08'1 1.3
2016-May-23 11:32N 37°32' E 025°09'0 0.0
2016-May-23 10:32N 37°32' E 025°09'0 0.0
2016-May-23 09:32N 37°32' E 025°09'0 0.0
2016-May-23 08:33N 37°32' E 025°09'29 2.4
2016-May-22 20:33N 37°51' E 024°41'9 9.5
2016-May-22 19:33N 37°46' E 024°32'9 9.5
2016-May-22 18:33N 37°42' E 024°21'7 1.8
2016-May-22 14:21N 37°36' E 024°14'14 6.2
2016-May-22 12:04N 37°32' E 023°57'4 7.8
2016-May-22 11:33N 37°33' E 023°52'8 8.2
2016-May-22 10:33N 37°38' E 023°44'9 8.8
2016-May-22 09:33N 37°45' E 023°39'9 8.8
2016-May-22 08:33N 37°54' E 023°37'8 7.8
2016-May-22 07:34N 38°01' E 023°32'1 0.6
2016-May-22 06:32N 38°02' E 023°33'2 2.4
2016-May-22 05:30N 38°02' E 023°36'0 0.0
2016-May-21 23:27N 38°02' E 023°36'0 0.0
2016-May-21 20:30N 38°02' E 023°36'0 0.0
2016-May-21 19:09N 38°02' E 023°36'0 0.0
2016-May-21 18:27N 38°02' E 023°36'0 0.0
2016-May-21 17:33N 38°02' E 023°36'0 0.1
2016-May-21 16:33N 38°02' E 023°36'2 2.4
2016-May-21 15:33N 38°02' E 023°33'0 0.1
2016-May-21 14:32N 38°02' E 023°32'0 0.0
2016-May-21 13:32N 38°02' E 023°32'0 0.0
2016-May-21 12:32N 38°02' E 023°32'0 0.0
2016-May-21 11:32N 38°02' E 023°32'0 0.0
2016-May-21 10:32N 38°02' E 023°32'0 0.0
2016-May-21 09:32N 38°02' E 023°32'0 0.0
2016-May-21 08:32N 38°02' E 023°32'0 0.0
2016-May-21 07:32N 38°02' E 023°32'0 0.0
2016-May-21 06:32N 38°02' E 023°32'0 0.0
2016-May-21 05:32N 38°02' E 023°32'0 0.0
2016-May-21 04:32N 38°02' E 023°32'0 0.0
2016-May-21 03:32N 38°02' E 023°32'0 0.0
2016-May-21 02:32N 38°02' E 023°32'0 0.0
2016-May-21 01:32N 38°02' E 023°32'0 0.0
2016-May-21 00:32N 38°02' E 023°32'0 0.0
2016-May-20 23:32N 38°02' E 023°32'0 0.0
2016-May-20 22:32N 38°02' E 023°32'0 0.0
2016-May-20 21:32N 38°02' E 023°32'0 0.0
2016-May-20 20:32N 38°02' E 023°32'0 0.0
2016-May-20 19:32N 38°02' E 023°32'0 0.0
2016-May-20 18:32N 38°02' E 023°32'0 0.0
2016-May-20 17:32N 38°02' E 023°32'0 0.0
2016-May-20 16:32N 38°02' E 023°32'0 0.0
2016-May-20 15:32N 38°02' E 023°32'0 0.0
2016-May-20 14:32N 38°02' E 023°32'0 0.0
2016-May-20 13:32N 38°02' E 023°32'0 0.0
2016-May-20 12:32N 38°02' E 023°32'0 0.0
2016-May-20 11:32N 38°02' E 023°32'0 0.0
2016-May-20 10:32N 38°02' E 023°32'0 0.0
2016-May-20 09:32N 38°02' E 023°32'0 0.0
2016-May-20 08:32N 38°02' E 023°32'0 0.0
2016-May-20 07:32N 38°02' E 023°32'0 0.0
2016-May-20 06:33N 38°02' E 023°32'5 4.7
2016-May-20 05:33N 37°57' E 023°33'3 3.0
2016-May-20 04:34N 37°55' E 023°36'8 8.1
2016-May-20 03:33N 37°48' E 023°40'9 9.4
2016-May-20 02:33N 37°40' E 023°47'1010.0
2016-May-20 01:32N 37°36' E 023°59'1010.2
2016-May-20 00:33N 37°33' E 024°11'3110.5
2016-May-19 21:33N 37°32' E 024°50'1010.5
2016-May-19 20:33N 37°31' E 025°03'1110.8
2016-May-19 19:33N 37°31' E 025°17'1111.0
2016-May-19 18:33N 37°33' E 025°31'23 0.5
2016-May-17 21:22N 37°11' E 025°26'6 6.8
2016-May-17 20:33N 37°06' E 025°22'0 0.1
2016-May-17 19:33N 37°06' E 025°22'0 0.0
2016-May-17 18:33N 37°06' E 025°22'0 0.2
2016-May-17 17:33N 37°06' E 025°22'1 0.9
2016-May-17 16:31N 37°06' E 025°21'0 0.0
2016-May-17 15:31N 37°06' E 025°21'0 0.0
2016-May-17 14:31N 37°06' E 025°21'0 0.0
2016-May-17 13:31N 37°06' E 025°21'1 1.0
2016-May-17 12:33N 37°06' E 025°22'  
Track history (hours):
 
Tides and Currents Weather Stations Pressure Air Temp Water Temp Dewpoint Dewpoint Depression Visibility Wind Speed Wind Dir Waves Ship Positions

Eko 2

Last reported at 2016-May-24 22:33 UTC. Time now 2016-May-25 20:52 UTC.
Position N 37°03' E 025°18'.

Length 89 m; draft 4.3 m.

Type: Ship (hazmat cat A). MMSI: 240827000.

Date/timePositionNaut miles runAvg speedWind from/ knotsBaromVisibWave heightAir tempDewpointWater temp
2016-May-24 22:33N 37°03' E 025°18'8 7.7
2016-May-24 21:33N 37°10' E 025°17'22 0.7
2016-May-23 13:10N 37°28' E 025°01'711.3
2016-May-23 12:34N 37°31' E 025°08'1 1.3
2016-May-23 11:32N 37°32' E 025°09'0 0.0
2016-May-23 10:32N 37°32' E 025°09'0 0.0
2016-May-23 09:32N 37°32' E 025°09'0 0.0
2016-May-23 08:33N 37°32' E 025°09'29 2.4
2016-May-22 20:33N 37°51' E 024°41'9 9.5
2016-May-22 19:33N 37°46' E 024°32'9 9.5
2016-May-22 18:33N 37°42' E 024°21'7 1.8
2016-May-22 14:21N 37°36' E 024°14'14 6.2
2016-May-22 12:04N 37°32' E 023°57'4 7.8
2016-May-22 11:33N 37°33' E 023°52'8 8.2
2016-May-22 10:33N 37°38' E 023°44'9 8.8
2016-May-22 09:33N 37°45' E 023°39'9 8.8
2016-May-22 08:33N 37°54' E 023°37'8 7.8
2016-May-22 07:34N 38°01' E 023°32'1 0.6
2016-May-22 06:32N 38°02' E 023°33'2 2.4
2016-May-22 05:30N 38°02' E 023°36'0 0.0
2016-May-21 23:27N 38°02' E 023°36'0 0.0
2016-May-21 20:30N 38°02' E 023°36'0 0.0
2016-May-21 19:09N 38°02' E 023°36'0 0.0
2016-May-21 18:27N 38°02' E 023°36'0 0.0
2016-May-21 17:33N 38°02' E 023°36'0 0.1
2016-May-21 16:33N 38°02' E 023°36'2 2.4
2016-May-21 15:33N 38°02' E 023°33'0 0.1
2016-May-21 14:32N 38°02' E 023°32'0 0.0
2016-May-21 13:32N 38°02' E 023°32'0 0.0
2016-May-21 12:32N 38°02' E 023°32'0 0.0
2016-May-21 11:32N 38°02' E 023°32'0 0.0
2016-May-21 10:32N 38°02' E 023°32'0 0.0
2016-May-21 09:32N 38°02' E 023°32'0 0.0
2016-May-21 08:32N 38°02' E 023°32'0 0.0
2016-May-21 07:32N 38°02' E 023°32'0 0.0
2016-May-21 06:32N 38°02' E 023°32'0 0.0
2016-May-21 05:32N 38°02' E 023°32'0 0.0
2016-May-21 04:32N 38°02' E 023°32'0 0.0
2016-May-21 03:32N 38°02' E 023°32'0 0.0
2016-May-21 02:32N 38°02' E 023°32'0 0.0
2016-May-21 01:32N 38°02' E 023°32'0 0.0
2016-May-21 00:32N 38°02' E 023°32'0 0.0
2016-May-20 23:32N 38°02' E 023°32'0 0.0
2016-May-20 22:32N 38°02' E 023°32'0 0.0
2016-May-20 21:32N 38°02' E 023°32'0 0.0
2016-May-20 20:32N 38°02' E 023°32'0 0.0
2016-May-20 19:32N 38°02' E 023°32'0 0.0
2016-May-20 18:32N 38°02' E 023°32'0 0.0
2016-May-20 17:32N 38°02' E 023°32'0 0.0
2016-May-20 16:32N 38°02' E 023°32'0 0.0
2016-May-20 15:32N 38°02' E 023°32'0 0.0
2016-May-20 14:32N 38°02' E 023°32'0 0.0
2016-May-20 13:32N 38°02' E 023°32'0 0.0
2016-May-20 12:32N 38°02' E 023°32'0 0.0
2016-May-20 11:32N 38°02' E 023°32'0 0.0
2016-May-20 10:32N 38°02' E 023°32'0 0.0
2016-May-20 09:32N 38°02' E 023°32'0 0.0
2016-May-20 08:32N 38°02' E 023°32'0 0.0
2016-May-20 07:32N 38°02' E 023°32'0 0.0
2016-May-20 06:33N 38°02' E 023°32'5 4.7
2016-May-20 05:33N 37°57' E 023°33'3 3.0
2016-May-20 04:34N 37°55' E 023°36'8 8.1
2016-May-20 03:33N 37°48' E 023°40'9 9.4
2016-May-20 02:33N 37°40' E 023°47'1010.0
2016-May-20 01:32N 37°36' E 023°59'1010.2
2016-May-20 00:33N 37°33' E 024°11'3110.5
2016-May-19 21:33N 37°32' E 024°50'1010.5
2016-May-19 20:33N 37°31' E 025°03'1110.8
2016-May-19 19:33N 37°31' E 025°17'1111.0
2016-May-19 18:33N 37°33' E 025°31'23 0.5
2016-May-17 21:22N 37°11' E 025°26'6 6.8
2016-May-17 20:33N 37°06' E 025°22'0 0.1
2016-May-17 19:33N 37°06' E 025°22'0 0.0
2016-May-17 18:33N 37°06' E 025°22'0 0.2
2016-May-17 17:33N 37°06' E 025°22'1 0.9
2016-May-17 16:31N 37°06' E 025°21'0 0.0
2016-May-17 15:31N 37°06' E 025°21'0 0.0
2016-May-17 14:31N 37°06' E 025°21'0 0.0
2016-May-17 13:31N 37°06' E 025°21'1 1.0
2016-May-17 12:33N 37°06' E 025°22'  

Dump ship's entire track history